Guy Poncy 5K at Angel's Stadium of Anaheim
Anaheim
August 1, 2009
     
Results by results@resultsbyprimetime.com  
Results by ChuckScore  
     
Male 1-14 15-19 20-24 25-29 30-34 35-39 40-44 45-49 50-54 55-59 60-64 65-69 70-99
Female 1-14 15-19 20-24 25-29 30-34 35-39 40-44 45-49 50-54 55-59 60-64
TOP Male
  Overall Overall State/
Place Name Bib Gun Tag Pace Place by Sex City County
1 Jabaz,Jorge 870 14:45.5 14:45.4 4:46 1 1 Anaheim CA
2 Everhart,Cameron 803 15:04.2 15:03.6 4:51 2 2 Anaheim CA
3 Scott,Dillon 951 16:02.6 16:02.6 5:11 3 3 Irvine CA
Go To Top
TOP Female
  Overall Overall State/
Place Name Bib Gun Tag Pace Place by Sex City County
1 Dutch,Taylor 566 19:46.3 19:40.4 6:21 18 1 Newport Beach CA
2 Stemper,Hannah 878 20:37.1 20:36.8 6:39 30 2 Santa Ana CA
3 Chan,Annie 892 21:00.8 20:58.7 6:46 35 3 Irvine CA
Go To Top
1-14 Male
  Overall Overall State/
Place Name Bib Gun Tag Pace Place by Sex City County
1 Bautista,Miguel 817 16:34.9 16:34.7 5:21 6 6 Long Beach CA
2 Bernabe,Muller 880 16:43.3 16:43.2 5:24 7 7 Tustin CA
3 Provencher,Kyle 812 18:08.3 18:07.1 5:51 8 8
4 Ferguson,Brandon 965 18:56.8 18:53.7 6:06 12 12 Huntington Beach CA
5 Pacheco,David 875 19:21.6 19:21.5 6:15 15 15 Anaheim CA
6 Freeman,Robert 580 19:26.8 19:26.6 6:16 17 17 Tustin CA
7 Eldridge,Logan 884 19:57.5 19:56.8 6:26 22 21 Orange CA
8 Bedell,Nick 886 20:32.3 20:29.5 6:37 25 24 Orange CA
9 Potter,Tommy 985 20:35.8 20:35.5 6:39 29 28 Villa Park CA
10 Reem,Nathan 882 20:37.3 20:36.8 6:39 31 29 Santa Ana CA
11 Khare,Nikhil 877 20:41.8 20:41.4 6:40 32 30 Tustin CA
12 Mengert,Blbine 963 21:18.9 21:17.9 6:52 39 36 Orange CA
13 Andrew,Jeremiah 505 21:35.7 21:34.1 6:57 42 37 Garden Grove CA
14 Morner,Johnny 979 21:41.8 21:39.4 6:59 45 40 Santa Ana CA
15 Woodruff,Benjamin 911 22:05.7 22:05.2 7:07 53 45 Santa Ana CA
16 Fitschen,Jerry 574 22:41.4 22:38.8 7:18 58 50 Orange CA
17 Hass,Greg 597 23:28.9 23:28.1 7:34 75 63 Huntington Beach CA
18 Lorenzana,Albert 634 24:49.8 24:49.4 8:00 101 80 Orange CA
19 Reiser,Gabriel 686 25:08.0 25:06.6 8:06 110 86 Long Beach CA
20 Christensen,Adam 747 26:18.3 26:14.9 8:28 144 104
21 Kent,Christian 869 27:48.7 27:42.0 8:56 178 123 Costa Mesa CA
22 Reiser,Derek 685 28:25.4 28:24.0 9:10 191 128 Long Beach CA
23 Humphrey,Mark 914 28:59.6 28:51.5 9:19 201 133 Orange CA
24 Chocek,Chase 901 29:07.4 29:03.8 9:23 203 135 Yorba Linda CA
25 Wagner,Gibson 897 29:26.6 29:23.2 9:29 210 137 Orange CA
26 Gonzalez,Nicholas 590 30:32.4 30:26.0 9:49 224 142 Los Angeles CA
27 Rudy,Matthew 696 30:57.5 30:39.6 9:53 226 143 Trabuco Canyon CA
28 White,Palmer 720 32:17.7 31:56.3 10:18 240 147 Irvine CA
29 Hass,Jeff 598 35:04.7 35:02.1 11:18 273 162 Huntington Beach CA
30 Candelario,Joshua 531 35:12.3 35:07.0 11:20 276 164 Riverside CA
Go To Top
15-19 Male
  Overall Overall State/
Place Name Bib Gun Tag Pace Place by Sex City County
1 Everhart,Cameron 803 15:04.2 15:03.6 4:51 2 2 Anaheim CA
2 Scott,Dillon 951 16:02.6 16:02.6 5:11 3 3 Irvine CA
3 D Leon,Kyle 742 16:30.5 16:30.0 5:19 4 4
4 Kingsland,Josh 625 16:32.1 16:32.0 5:20 5 5 Irvine CA
5 Wright,Nick 956 18:44.7 18:38.9 6:01 10 10 Orange CA
6 Humphrey,Matthew 916 19:04.0 18:58.8 6:07 13 13 Orange CA
7 Stallings,Andrew 959 21:47.5 21:37.6 6:59 44 39 Covina CA
8 Rosales,Eric 978 21:54.2 21:49.6 7:02 49 43 Costa Mesa CA
9 Williams,David 722 23:57.8 23:50.9 7:42 82 67 Staunton VA
10 Rudy,John 694 24:09.0 23:51.5 7:42 83 68 Trabuco Canyon CA
11 Friese,Jared 729 25:05.1 24:55.1 8:02 105 83 Anaheim CA
12 Arnold,Nick 762 26:02.5 25:52.6 8:21 134 99 Brea CA
13 Broome,Ben 523 25:58.0 25:55.4 8:22 137 101 Yorba Linda CA
Go To Top
20-24 Male
  Overall Overall State/
Place Name Bib Gun Tag Pace Place by Sex City County
1 Jabaz,Jorge 870 14:45.5 14:45.4 4:46 1 1 Anaheim CA
2 Ross,Kyle 806 18:40.9 18:35.0 6:00 9 9 Buena Park CA
3 Dargatz,David 555 19:46.4 19:40.4 6:21 19 18 Orange CA
4 Kreps,Chris 739 22:55.3 22:52.9 7:23 65 54 Orange CA
5 Charron,Jason 540 27:29.6 27:13.8 8:47 169 115 Yorba Linda CA
6 Nelson,Steve 961 29:54.4 29:41.8 9:35 213 139 Anaheim CA
7 Gonzales,Keith 587 30:29.1 30:21.7 9:48 222 141 Huntington Beach CA
Go To Top
25-29 Male
  Overall Overall State/
Place Name Bib Gun Tag Pace Place by Sex City County
1 Lincoln,James 813 18:47.2 18:47.2 6:04 11 11 Irvine CA
2 Andrew,Justin 506 21:14.2 21:13.1 6:51 38 35 Garden Grove CA
3 Thompson,Brett 709 21:46.2 21:40.0 6:59 46 41 El Segundo CA
4 Brazeal,Brett 520 22:01.6 21:55.0 7:04 52 44 Costa Mesa CA
5 Detemple,Tom 558 22:37.0 22:29.8 7:15 55 47 Costa Mesa CA
6 Ramirez,Manuel 681 24:59.2 24:57.1 8:03 107 84 Bellflower CA
7 Mccullough,Aaron 639 25:09.8 25:09.8 8:07 111 87 Huntington Beach CA
8 Reo,Josh 823 25:48.8 25:46.7 8:19 131 97 La Habra CA
9 Sanchez,Robert 699 25:57.6 25:49.6 8:20 133 98 Bell Gardens CA
10 Murray,Nick 655 26:47.0 26:30.4 8:33 149 106 Anaheim CA
11 Flynn,Josh 576 27:39.1 27:28.6 8:52 173 119 Santa Clarita CA
12 Lisk,Ryan 913 27:39.3 27:28.6 8:52 174 120 Costa Mesa CA
13 Butler,Kevin 527 27:46.4 27:30.8 8:53 175 121 Los Angeles CA
14 Deguzman,Gelbert 734 33:30.0 33:26.1 10:47 256 153 Walnut CA
15 Wu,Eric 726 34:25.4 34:13.2 11:02 263 156 Monterey Park CA
16 Wong,Raymond 725 34:25.6 34:13.9 11:03 264 157 Alhambra CA
17 Chan,Leo Wai-kit 538 36:05.5 35:53.5 11:35 279 166 San Gabriel CA
18 Abbott,Jerome 501 41:05.5 40:43.8 13:08 296 171 Laguna Niguel CA
19 Barnese,Kevin 511 50:09.2 49:41.9 16:02 319 174 San Juan Capistrano CA
Go To Top
30-34 Male
  Overall Overall State/
Place Name Bib Gun Tag Pace Place by Sex City County
1 Chavez,Alexander 542 21:47.6 21:45.3 7:01 47 42 Diamond Bar CA
2 Goldenberg,David 908 22:36.0 22:27.4 7:15 54 46 Foothill Ranch CA
3 Perez,Daniel 984 22:37.6 22:34.5 7:17 56 48 La Palma CA
4 Valenzuela,Kevin 732 22:43.6 22:37.9 7:18 57 49 Hemet CA
5 Courvoisier,Jeff 753 23:26.2 23:17.1 7:31 72 60 Yorba Linda CA
6 De Guzman,Gerald 556 24:28.9 24:25.8 7:53 94 74 Chino Hills CA
7 Huerta,Hugo 606 25:13.5 24:48.8 8:00 100 79 Westminster CA
8 Moore,Patrick 650 25:22.4 25:14.3 8:08 112 88 Rancho Santa Margari CA
9 Duguet,Laurent 561 25:54.5 25:36.3 8:16 124 93 Winchester CA
10 Walters,Michael 712 26:22.2 25:54.2 8:21 135 100 Anaheim CA
11 Vandeven,Brandon 731 26:23.9 26:12.6 8:27 143 103 Placentia CA
12 Nunez,David 662 26:57.7 26:44.3 8:37 159 111 Long Beach CA
13 Slagle A,Jason 822 26:59.8 26:58.4 8:42 163 114 La Habra CA
14 Hesse,Kurt 601 27:57.1 27:27.2 8:51 171 117 Huntington Beach CA
15 Johansen,Ian 613 35:14.6 34:45.4 11:13 269 161 Santa Ana CA
16 Velasquez,Abraham 711 48:42.9 48:15.1 15:34 316 173 Orange CA
Go To Top
35-39 Male
  Overall Overall State/
Place Name Bib Gun Tag Pace Place by Sex City County
1 Jimenez,Jeff 969 19:12.3 19:09.7 6:11 14 14 Montebello CA
2 Ippolito,Nick 611 20:26.0 20:21.3 6:34 24 23 Los Angeles CA
3 Paz,Rudy 673 20:51.3 20:43.9 6:41 33 31 Orange CA
4 Shrake,Tom 871 21:09.9 21:06.0 6:48 36 33 Anaheim CA
5 Elliott,Ray 567 21:36.9 21:34.6 6:58 43 38 Whittier CA
6 Candelario,Lorenzo 532 23:30.8 23:25.6 7:33 73 61 Riverside CA
7 Soto,Robert 706 23:54.8 23:44.8 7:40 79 65 Yorba Linda CA
8 Lotho,Christopher 899 25:01.1 24:50.6 8:01 103 81 Irvine CA
9 Bruner,Kevin 524 25:27.8 25:18.9 8:10 117 90 Orange CA
10 Foote,Chuck 905 25:40.2 25:22.8 8:11 121 91 West Covina CA
11 Briggs,Matthew 522 25:59.0 25:39.0 8:16 127 94 Laguna Niguel CA
12 Quimbo,Eric 679 26:26.3 26:17.9 8:29 146 105 Anaheim CA
13 Miller,Corey 647 27:00.4 26:42.2 8:37 155 110 Woodland Hills CA
14 Chen,David 543 27:31.2 27:28.2 8:52 172 118 Irvine CA
15 Purser,David 677 28:11.9 27:44.1 8:57 181 125 Corona CA
16 Panem,Angelito 667 28:46.5 28:42.6 9:16 197 131 Pomona CA
17 Palmer,Jeffrey 894 33:08.2 32:57.9 10:38 249 151 Lake Forest CA
18 Mcfarland,Michael 641 33:31.3 33:16.5 10:44 254 152 Cypress CA
19 Manthei,Jonathan 637 35:06.8 34:44.1 11:12 267 159 Irvine CA
20 Heil,Dennis 600 35:09.3 34:45.3 11:13 268 160 Stanton CA
Go To Top
40-44 Male
  Overall Overall State/
Place Name Bib Gun Tag Pace Place by Sex City County
1 Charpentier,Greg 539 22:56.4 22:44.3 7:20 60 52 Oak Hills CA
2 Both,Paul 821 23:17.3 23:12.3 7:29 70 58 Huntington Beach CA
3 Chalman,Keith 804 23:41.3 23:37.4 7:37 76 64 Yorba Linda CA
4 Dulik,Jeffrey 562 25:46.1 25:34.2 8:15 123 92 Lake Elsinore CA
5 Bedell,Jeff 885 25:42.0 25:39.2 8:17 128 95 Orange CA
6 Keeney,Doug 621 26:23.4 26:04.4 8:25 141 102 Corona CA
7 Holmes,Larry 824 26:39.3 26:38.1 8:35 152 108
8 U Ansky,Brad 740 27:48.8 27:38.9 8:55 177 122 Claremont CA
9 Hallstrom,Darin 745 27:51.0 27:43.2 8:57 180 124 Santa Ana CA
10 Stallings,Jeff 960 28:51.9 28:42.0 9:15 196 130 Placentia CA
11 Chocek,Mike 903 29:14.1 29:10.6 9:25 208 136 Yorba Linda CA
12 Carter,Art 536 32:12.6 31:51.6 10:17 239 146 Diamond Bar CA
13 White,Todd 721 32:19.0 31:57.5 10:19 241 148 Irvine CA
14 Crain,Toby 756 34:35.8 34:15.5 11:03 265 158 Orange CA
15 Hass,Eric 596 35:05.2 35:02.4 11:18 274 163 Huntington Beach CA
16 Naudin,Richard 659 36:47.0 36:41.6 11:50 287 168 Corona CA
17 Folkens,Dale 578 36:55.9 36:42.5 11:50 288 169 Moreno Valley CA
Go To Top
45-49 Male
  Overall Overall State/
Place Name Bib Gun Tag Pace Place by Sex City County
1 Hutchinson,Dale 608 19:43.7 19:42.9 6:22 20 19 Irvine CA
2 Crandall,Robert 549 19:47.7 19:47.0 6:23 21 20 Yorba Linda CA
3 Butler,Lewis 528 20:32.5 20:30.5 6:37 27 26 Coto De Caza CA
4 Camacho,Enrique 743 20:31.6 20:30.9 6:37 28 27 San Bernardino CA
5 Alvarado,Robert 503 23:15.0 23:07.8 7:28 68 56 Tustin CA
6 Rand,Thomas 683 23:16.3 23:09.6 7:28 69 57 Long Beach CA
7 Rodino,Jim 970 24:07.6 24:00.2 7:45 87 69 Chino Hills CA
8 Mancilla,Sal 636 24:38.3 24:29.1 7:54 95 75 Montclair CA
9 Mengert,Bill 964 24:44.4 24:42.6 7:58 98 77 Orange CA
10 Moseley,Gregory 983 25:10.9 25:05.2 8:06 109 85 Orange CA
11 Williams,James 723 25:21.3 25:14.5 8:09 113 89 Staunton VA
12 Flores,Juan 575 27:03.1 26:45.0 8:38 160 112 Mission Hills CA
13 Rimel,Peter 952 27:48.1 27:44.7 8:57 182 126 Santa Ana CA
14 Fox,Bill 738 27:56.0 27:46.2 8:57 183 127
15 Erickson,David 570 29:07.1 28:51.5 9:19 202 134 Cypress CA
16 Stemper,Jack 879 29:28.1 29:24.4 9:29 211 138 Santa Ana CA
17 Cantu,Virgil 535 30:29.2 30:01.6 9:41 218 140 Fullerton CA
18 Humphrey,Mike 915 32:53.7 32:45.8 10:34 246 150 Orange CA
19 Hare,John 595 33:53.7 33:49.3 10:55 258 155 Foothill Ranch CA
20 Barry,Mike 811 40:19.1 40:04.5 12:56 292 170 Anaheim CA
21 Pleasant,Brian 816 50:46.5 50:24.4 16:16 322 175 Torrance CA
22 Castorena,Peter 537 51:30.3 51:25.5 16:35 324 176 La Mirada CT
Go To Top
50-54 Male
  Overall Overall State/
Place Name Bib Gun Tag Pace Place by Sex City County
1 Albright,Tom 904 19:25.1 19:24.8 6:16 16 16 Newport Beach CA
2 Eldridge,Richard 883 20:05.6 20:04.9 6:29 23 22 Orange CA
3 Herschler,Larry 737 21:08.4 21:06.9 6:49 37 34 Anaheim CA
4 Cisneros,Daniel 967 23:31.8 23:26.9 7:34 74 62 Carson CA
5 Valencia,Julian 898 24:29.9 24:04.0 7:46 89 70 Riverside CA
6 Holman,William 604 24:20.1 24:05.5 7:46 90 71 Huntington Beach CA
7 Gonzalez,Jose 588 24:17.3 24:11.5 7:48 91 72 Los Angeles CA
8 Webster,Jeff 714 24:46.4 24:44.7 7:59 99 78 Lake Forest CA
9 Sharpe,Chris 912 25:51.9 25:44.7 8:18 129 96 Irvine CA
10 Lehmer,Randy 761 26:38.3 26:34.6 8:34 150 107 Trabuco Canyon CA
11 Hoskin,Tom 895 31:15.4 30:59.0 10:00 229 144
12 Horner,Cree 605 31:21.1 31:12.3 10:04 234 145 Monrovia CA
13 Kent,Nigel 802 32:24.5 32:17.6 10:25 243 149 Costa Mesa CA
14 Ross,Chris 807 43:50.7 43:29.5 14:02 303 172 Buena Park CA
Go To Top
55-59 Male
  Overall Overall State/
Place Name Bib Gun Tag Pace Place by Sex City County
1 Porter,Bobby 676 20:53.2 20:52.6 6:44 34 32 Orange CA
2 Gentile,John 906 22:52.4 22:44.1 7:20 59 51 Long Beach CA
3 Berleth,Rudy 513 22:59.7 22:47.3 7:21 61 53 Fullerton CA
4 Nahm,Steven 656 22:55.6 22:54.5 7:23 67 55 Laguna Beach CA
5 Chavez,Charlie 751 25:01.1 24:50.7 8:01 104 82 Yorba Linda CA
6 Lazalde,Steve 632 26:52.9 26:41.4 8:37 153 109 Alta Loma CA
7 Roach,Michael 874 27:36.9 27:24.5 8:50 170 116 Cerritos CA
8 Morton,Anthony 653 36:21.7 35:50.6 11:34 278 165 Long Beach CA
Go To Top
60-64 Male
  Overall Overall State/
Place Name Bib Gun Tag Pace Place by Sex City County
1 Mitchell,Wayne 900 20:30.2 20:29.9 6:37 26 25 Silverado CA
2 Singlair,Jerry 975 24:21.7 24:21.7 7:52 92 73 Watonga OK
3 Parker,Thomas 669 27:04.4 26:55.9 8:41 162 113 Temple City CA
4 Candelario,Lorenzo 533 33:42.9 33:37.9 10:51 257 154 Lodi CA
5 Kreitzer,Keeton 629 36:15.5 36:06.1 11:39 282 167 Santa Ana CA
Go To Top
65-69 Male
  Overall Overall State/
Place Name Bib Gun Tag Pace Place by Sex City County
1 Noyes,Kent 661 23:18.1 23:12.8 7:29 71 59 Los Angeles CA
2 Hyatt,Bartley 609 24:36.7 24:35.5 7:56 97 76 Trabuco Canyon CA
3 White,James 719 29:10.4 28:50.0 9:18 200 132 Lancaster CA
Go To Top
70-99 Male
  Overall Overall State/
Place Name Bib Gun Tag Pace Place by Sex City County
1 Norton,Bob 950 23:51.0 23:49.8 7:41 80 66 Huntington Beach CA
2 Purucker,Ken 678 28:26.0 28:24.4 9:10 192 129 Seal Beach CA
Go To Top
1-14 Female
  Overall Overall State/
Place Name Bib Gun Tag Pace Place by Sex City County
1 Stemper,Hannah 878 20:37.1 20:36.8 6:39 30 2 Santa Ana CA
2 Lopez,Lizette 809 22:50.6 22:50.2 7:22 63 10 Buckeye AZ
3 Khare,Annika 876 28:52.2 28:49.6 9:18 199 68 Tustin CA
4 Saenz,Marleigh 890 31:17.1 31:09.6 10:03 233 89 Hesperia CA
5 Moseley,Gabrielle 981 36:08.0 36:03.5 11:38 280 114 Orange CA
Go To Top
15-19 Female
  Overall Overall State/
Place Name Bib Gun Tag Pace Place by Sex City County
1 Dutch,Taylor 566 19:46.3 19:40.4 6:21 18 1 Newport Beach CA
2 Chan,Annie 892 21:00.8 20:58.7 6:46 35 3 Irvine CA
3 Andrew,Krista 507 21:35.0 21:33.4 6:57 41 5 Garden Grove CA
4 Best,Natalie 735 21:50.9 21:50.9 7:03 50 7 Yorba Linda CA
5 Best,Natalie 881 21:51.7 21:51.7 7:03 51 8 Yorba Linda CA
6 Bailey,Brittany 509 24:05.0 24:01.3 7:45 88 19 Buena Park CA
7 Rudi,Sally 958 25:24.8 25:15.5 8:09 114 25 Anaheim CA
8 Van Soye,Lauren 888 25:28.3 25:19.0 8:10 118 28 Anaheim CA
9 Obrien,Shannon 733 25:31.1 25:21.7 8:11 120 30 Rancho Santa Margari CA
10 Deese,Samantha 744 26:01.8 25:55.2 8:22 136 36 Yorba Linda CA
11 Crain,Courtney 758 26:10.9 26:02.2 8:24 140 39 Orange CA
12 Resendez,Liz 691 27:09.9 27:01.3 8:43 164 50 Mission Viejo CA
13 Schumacher,Jenna 700 27:29.3 27:13.4 8:47 167 53 Orange CA
14 Kenny,Clarissa 624 31:22.5 31:22.5 10:07 236 91 Orange CA
15 Kohler,Marissa 627 48:38.5 48:11.1 15:33 314 142 Garden Grove CA
Go To Top
20-24 Female
  Overall Overall State/
Place Name Bib Gun Tag Pace Place by Sex City County
1 Kooiman,Danica 628 23:39.6 23:39.6 7:38 78 14 Long Beach CA
2 Klitzing,Ashley 626 24:51.2 24:49.9 8:01 102 22 Orange CA
3 Cunningham,Emily 552 27:00.7 26:43.5 8:37 157 47 Orange CA
4 Rendon,Kelly 690 27:00.7 26:43.5 8:37 158 48 Orange CA
5 Pennington,Leighann 893 26:55.3 26:52.1 8:40 161 49 Irvine CA
6 Hardeman,Emma 594 27:55.3 27:54.2 9:00 188 61 Orange CA
7 Westling,Ruth 717 29:24.4 29:06.2 9:23 206 71 San Diego CA
8 Damerval,Brittany 553 29:47.0 29:41.6 9:35 212 74 Huntington Beach CA
9 Peczkowski,Amanda 674 30:31.9 30:16.4 9:46 219 79 Laguna Niguel CA
10 Ilagan,Maria Lourdes 610 30:34.3 30:26.5 9:49 225 83 San Marcos CA
11 Haniff,Zeenath 593 31:23.2 31:07.0 10:02 230 86 Brea CA
12 Durham,Meghan 565 33:14.3 32:54.1 10:37 248 98 Lake Forest CA
13 Fenske,Marka 572 35:16.1 34:59.6 11:17 271 110 Riverside CA
14 Michalek,Raisa 645 35:16.0 34:59.6 11:17 272 111 Riverside CA
15 Hurley,Tara 607 40:40.9 40:19.6 13:00 293 123 Laguna Nigues CA
16 Schubert,Brittany 748 41:35.5 41:08.4 13:16 299 128 Anaheim CA
17 Remick,Angelica 689 48:38.8 48:11.7 15:33 315 143 Orange CA
Go To Top
25-29 Female
  Overall Overall State/
Place Name Bib Gun Tag Pace Place by Sex City County
1 Mitamura,Jennifer 648 22:57.3 22:51.1 7:22 64 11 El Segundo CA
2 Gaffigan,Ann 583 23:39.5 23:37.8 7:37 77 13 Huntington Beach CA
3 Sabo,Jamie 907 23:59.0 23:49.9 7:41 81 15 Huntington Beach CA
4 Nurse,Erin 664 25:28.8 25:20.4 8:10 119 29 Huntington Beach CA
5 Briggs,Christa 521 25:58.6 25:38.7 8:16 126 33 Laguna Niguel CA
6 Reynaga,Carmen 692 25:57.6 25:49.5 8:20 132 35 La Mirada CA
7 Greavu,Andreea 591 26:42.0 26:42.0 8:37 154 45 Long Beach CA
8 Williams,Jennifer 724 27:00.5 26:43.4 8:37 156 46 Glendora CA
9 Hafemann,Lindsey 872 27:49.4 27:46.6 8:58 184 57 Orange CA
10 Fry,Jodi 582 28:05.9 27:49.6 8:59 185 58 Brea CA
11 Fogle,Amity 577 28:20.7 27:51.9 8:59 186 59 Yucaipa CA
12 Roach,Caryn 873 30:03.6 29:49.5 9:37 215 76 Los Angeles CA
13 Mccullough Walker,Alisha 640 31:23.8 31:07.6 10:02 231 87 Long Beach CA
14 Merryfield,Jessica 643 31:24.4 31:08.8 10:03 232 88 Orange CA
15 Chua,Pjoy 545 32:24.8 32:20.6 10:26 244 95 Valley Village CA
16 Gomez,Monica 801 34:03.3 33:59.0 10:58 260 105 Lake Forest CA
17 Molina,Kristin 949 34:09.1 34:04.6 11:00 262 107 Lake Forest CA
18 Burke,Juleigh 525 37:56.4 37:42.2 12:10 291 122 Los Alamitos CA
19 Maspaitella,Marisa 736 40:41.7 40:26.2 13:03 294 124 Covina CA
20 Beebe,Mayra 512 44:09.2 43:40.9 14:05 304 132 Norwalk CA
21 Anderson,Margaret 750 47:07.9 46:41.2 15:04 313 141 Cypress CA
22 Kane,Lindsay 619 50:08.1 49:42.6 16:02 320 146 Cypress CA
23 Hathaitham,Dana 599 50:09.8 49:44.2 16:03 321 147 Anaheim Hills CA
Go To Top
30-34 Female
  Overall Overall State/
Place Name Bib Gun Tag Pace Place by Sex City County
1 Wilson,Brook 799 21:22.4 21:20.8 6:53 40 4
2 Wesolowski,Lora 716 21:51.3 21:49.3 7:02 48 6 Coto De Caza CA
3 Mcconathy,Elizabeth 974 24:51.9 24:21.8 7:52 93 20 Mission Viejo CA
4 Shultz,Christina 702 25:01.4 24:56.1 8:03 106 23 Murrieta CA
5 Chaves,Wendy 541 24:59.1 24:59.1 8:04 108 24 La Mesa CA
6 Sinclair,Audrey 752 25:48.5 25:18.4 8:10 115 26 Laguna Niguel CA
7 Aytona,Jennifer 508 25:23.1 25:18.9 8:10 116 27 Los Angeles CA
8 Jung,Christine 618 25:51.5 25:46.0 8:19 130 34 Rowland Heights CA
9 Roach,Janine 730 26:13.2 25:59.4 8:23 139 38 Los Angeles CA
10 Steen,Jessica 707 27:13.8 27:05.5 8:44 166 52 Costa Mesa CA
11 Ramirez,Christine 680 27:44.5 27:42.3 8:56 179 56 Tustin CA
12 Damitio,Jennie 554 28:39.2 28:32.5 9:12 195 66 Grand Terrace CA
13 Turzer,Kristy 710 29:11.0 29:04.1 9:23 204 69 Riverside CA
14 Warden,Melissa 713 29:13.1 29:06.4 9:23 207 72 Los Angeles CA
15 Jung,Angela 617 32:13.7 32:09.1 10:22 242 94 Rowland Heights CA
16 Saenz,Sarah 697 33:10.4 33:03.2 10:40 250 99 Hesperia CA
17 Cody,Christy 546 34:14.2 33:50.0 10:55 259 104 Lake Forest CA
18 Johansen,Kristie 614 35:14.9 34:45.8 11:13 270 109 Santa Ana CA
19 Panem,Hasmin 668 35:49.6 35:47.0 11:33 277 113 Pomona CA
20 Naudin,Melissa 658 37:32.6 37:26.5 12:05 290 121 La Mirada CA
21 Beveridge,Karina 515 40:56.3 40:27.9 13:03 295 125 Chino Hills CA
22 Adams,Laura 502 46:56.0 46:28.5 15:00 311 139 Tustin AZ
23 Oliver,Janeen 665 47:07.6 46:40.4 15:03 312 140 Los Alamitos CA
24 Goldenberg,Theresa 909 50:08.6 49:31.5 15:59 317 144 Foothill Ranch CA
Go To Top
35-39 Female
  Overall Overall State/
Place Name Bib Gun Tag Pace Place by Sex City County
1 Hundley,Kelley 741 22:53.7 22:47.7 7:21 62 9 Ladera Ranch CA
2 Bailey,Stacy 510 25:34.8 25:30.6 8:14 122 31 Buena Park CA
3 Song,Jiyoon 704 25:49.4 25:37.5 8:16 125 32 Foothill Ranch CA
4 Decker,Vanessa 557 26:49.7 26:23.4 8:31 148 43 Fullerton CA
5 Moore,Robyn 651 27:48.3 27:37.7 8:55 176 55 Ladera Ranch CA
6 Chisick,Melinda 544 28:27.8 28:22.4 9:09 190 63 Anaheim CA
7 Mcfarland,Shelbi 642 33:31.2 33:16.2 10:44 253 102 Cypress CA
8 Nguyen,Thuy 977 36:39.6 36:33.7 11:48 285 118 Whittier CA
9 Folkens,Kimberli 579 36:55.1 36:41.4 11:50 286 119 Moreno Valley CA
10 Johnson,Tawnya 616 41:17.3 41:05.7 13:15 298 127 Huntington Beach CA
11 Candelario,Denise 529 46:10.4 45:47.7 14:46 307 135 Anaheim CA
12 Candelario,Tara 534 46:10.5 45:48.1 14:46 308 136 Riverside CA
Go To Top
40-44 Female
  Overall Overall State/
Place Name Bib Gun Tag Pace Place by Sex City County
1 Sabo,June 910 24:07.1 23:57.5 7:44 85 17 Foothill Ranch CA
2 Crandall,Terri 550 24:00.2 23:59.4 7:44 86 18 Yorba Linda CA
3 Mancilla,Rosa 635 24:39.3 24:30.6 7:54 96 21 Montclair CA
4 Higa,Kim 602 26:20.2 26:09.2 8:26 142 40 Mission Viejo CA
5 Wheat,Francine 718 26:49.5 26:23.3 8:31 147 42 Brea CA
6 Duerr,Maggie 560 27:11.4 27:02.0 8:43 165 51 Orange CA
7 Soto,Joanne 705 29:16.4 29:06.1 9:23 205 70 Yorba Linda CA
8 Chocek,Teresa 902 29:15.6 29:12.0 9:25 209 73 Yorba Linda CA
9 Sternlicht,Christine 708 30:36.0 30:18.8 9:47 220 80 Orange CA
10 Gonzalez,Lupe 589 30:32.2 30:26.0 9:49 223 82 Los Angeles CA
11 Power,Bernadette 815 31:41.6 31:30.7 10:10 237 92 Orange CA
12 Hurley,Janice 887 31:56.1 31:46.5 10:15 238 93 Anaheim CA
13 Crain,Jennifer 757 33:12.3 32:53.0 10:36 247 97 Orange CA
14 Rudy,Kim 695 33:36.0 33:17.7 10:44 255 103 Trabuco Canyon CA
15 Young,Kim 728 36:32.6 36:14.5 11:41 284 117 Winchester CA
16 Fitschen,Cynthia 573 42:35.7 42:20.9 13:40 301 130 Orange CA
17 Sears,Shana 701 42:36.5 42:21.7 13:40 302 131 Orange CA
18 Keeney,Michele 622 44:40.7 44:07.7 14:14 305 133 Corona CA
19 Asneros,Natalie 968 46:51.2 46:27.6 14:59 310 138
20 Masuda,Caroline 746 50:46.6 50:24.6 16:16 323 148 Carson CA
Go To Top
45-49 Female
  Overall Overall State/
Place Name Bib Gun Tag Pace Place by Sex City County
1 Ross,Kristina 805 22:57.9 22:53.9 7:23 66 12 Buena Park CA
2 Eloe,Nancy 569 26:05.1 25:56.0 8:22 138 37 Orange CA
3 Nunez,Rosemary 663 27:21.3 27:13.4 8:47 168 54 Pico Rivera CA
4 Grime,Karyn 592 28:18.8 28:10.9 9:05 189 62 Pasadena CA
5 Freeman,Valerie 581 28:36.5 28:29.1 9:11 194 65 Tustin CA
6 Cricks,Kelly 551 30:29.1 30:01.1 9:41 217 78 Fullerton CA
7 Hoskin,Rebecca 896 31:15.4 30:59.0 10:00 228 85 Laguna Niguel CA
8 Villasenor,Doreen 966 33:16.2 33:04.9 10:40 251 100
9 Durham,Lisa 564 34:38.8 34:17.9 11:04 266 108 Lake Forest CA
10 Bramson,Amy 518 35:12.9 35:03.4 11:18 275 112 Orange CA
11 Rodino,Lynne 971 36:13.6 36:05.8 11:39 281 115 Chino Hills CA
12 Moseley,Deirdre 982 36:08.5 36:08.5 11:40 283 116 Orange CA
13 Humphrey,Kathryn 917 42:14.5 41:59.7 13:33 300 129 Orange CA
14 Milby,Nancy 646 46:06.1 45:40.6 14:44 306 134 Laguna Beach CA
Go To Top
50-54 Female
  Overall Overall State/
Place Name Bib Gun Tag Pace Place by Sex City County
1 Mudd,Becky 654 24:02.2 23:51.8 7:42 84 16 Irvine CA
2 Holman,Cyndi 603 26:51.9 26:37.2 8:35 151 44 Huntington Beach CA
3 Biggs,Jeannette 516 28:22.4 27:53.9 9:00 187 60 Yucaipa CA
4 Pasqualetto,Morgan 670 28:54.0 28:27.7 9:11 193 64 Portola Hills CA
5 Schubert,Cheryl 749 28:57.1 28:46.6 9:17 198 67 Anaheim CA
6 Berry,Sharon 514 29:45.8 29:43.7 9:35 214 75 Claremont CA
7 Doherty,Colleen 559 30:36.2 30:19.3 9:47 221 81 Orange CA
8 Mansur,Sandy 818 30:49.6 30:44.0 9:55 227 84 Anaheim CA
9 Gomez,Aida 586 31:31.5 31:20.7 10:07 235 90 Mission Viejo CA
10 Marzolo,Trisha 638 37:35.9 37:09.3 11:59 289 120 San Clemente CA
Go To Top
55-59 Female
  Overall Overall State/
Place Name Bib Gun Tag Pace Place by Sex City County
1 Lazalde,Joyce 631 26:27.2 26:16.5 8:29 145 41 Alta Loma CA
2 Kelly,Elizabeth 623 29:54.4 29:51.7 9:38 216 77 Covina CA
3 Noyes,Helen 660 32:26.1 32:21.5 10:26 245 96
4 Skoglund,Cynthia 703 34:17.3 34:03.0 10:59 261 106 Yorba Linda CA
5 Candelario,Jenny 530 41:08.3 40:45.9 13:09 297 126 Lodi CA
6 Redeaux,Jurline 684 46:49.0 46:26.4 14:59 309 137 Long Beach CA
Go To Top
60-64 Female
  Overall Overall State/
Place Name Bib Gun Tag Pace Place by Sex City County
1 Moore,Suzanne 652 33:27.3 33:14.7 10:43 252 101 Rancho Santa Margari CA
2 Kane,Nancy 620 50:08.0 49:41.5 16:02 318 145 Cypress CA